Time;durP1;ratioP1;P1;durP2;ratioP2;P2;SDS_P1;SDS_P2;PMS_P1;PMS_P2;Temp;Humidity;BMP_temperature;BMP_pressure;BME280_temperature;BME280_humidity;BME280_pressure;Samples;Min_cycle;Max_cycle;Signal;HPM_P1;HPM_P2
2022/08/17 00:00:20;;;;;;;;;;;;;;;19.61;55.33;97503.13;5057588;28;19924;-61
2022/08/17 00:03:09;;;;;;;;;;;;;;;19.36;55.88;97497.34;5063315;28;19920;-61
2022/08/17 00:05:39;;;;;;;;;;;;;;;19.53;55.46;97503.41;5061060;28;19920;-64
2022/08/17 00:08:07;;;;;;;;;;;;;;;19.63;55.26;97502.75;5066303;28;19977;-64
2022/08/17 00:10:35;;;;;;;;;;;;;;;19.44;56.07;97505.66;5050545;28;19935;-64
2022/08/17 00:13:07;;;;;;;;;;;;;;;19.46;55.67;97501.38;5071949;28;19924;-63
2022/08/17 00:15:36;;;;;;;;;;;;;;;19.41;55.56;97498.19;5065407;28;19932;-64
2022/08/17 00:18:04;;;;;;;;;;;;;;;19.49;55.57;97499.81;5066145;28;19933;-61
2022/08/17 00:20:52;;;;;;;;;;;;;;;19.40;55.60;97502.13;5061281;28;19924;-61
2022/08/17 00:23:46;;;;;;;;;;;;;;;19.50;55.48;97507.72;5068248;28;19947;-61
2022/08/17 00:26:16;;;;;;;;;;;;;;;19.21;56.10;97511.38;5064250;28;21048;-64
2022/08/17 00:29:06;;;;;;;;;;;;;;;19.05;56.61;97504.13;5067652;28;19931;-61
2022/08/17 00:31:37;;;;;;;;;;;;;;;19.04;56.81;97504.50;5057518;28;19935;-62
2022/08/17 00:34:33;;;;;;;;;;;;;;;19.16;56.75;97504.22;5067067;28;20216;-61
2022/08/17 00:37:01;;;;;;;;;;;;;;;19.17;56.39;97508.56;5065530;28;19990;-61
2022/08/17 00:39:29;;;;;;;;;;;;;;;19.13;56.42;97510.50;5051973;28;19928;-63
2022/08/17 00:41:59;;;;;;;;;;;;;;;19.30;55.91;97509.09;5051440;28;19929;-65
2022/08/17 00:47:39;;;;;;;;;;;;;;;19.20;56.16;97498.75;5068140;28;20434;-67
2022/08/17 00:50:27;;;;;;;;;;;;;;;19.19;56.15;97492.47;5063939;28;20034;-64
2022/08/17 00:53:15;;;;;;;;;;;;;;;19.10;56.38;97494.72;5058466;28;19936;-63
2022/08/17 00:56:06;;;;;;;;;;;;;;;19.21;56.00;97490.13;5064616;28;19963;-69
2022/08/17 00:59:19;;;;;;;;;;;;;;;19.04;56.59;97479.72;5065352;28;20011;-64
2022/08/17 01:02:11;;;;;;;;;;;;;;;19.18;56.21;97487.34;5060444;28;19924;-64
2022/08/17 01:05:01;;;;;;;;;;;;;;;19.22;55.88;97485.41;5070471;28;19932;-64
2022/08/17 01:07:51;;;;;;;;;;;;;;;19.07;56.44;97487.25;5058110;28;19924;-65
2022/08/17 01:14:00;;;;;;;;;;;;;;;19.07;56.63;97487.25;5059284;28;19938;-66
2022/08/17 01:16:49;;;;;;;;;;;;;;;19.13;56.26;97488.47;5037598;28;19925;-64
2022/08/17 01:19:38;;;;;;;;;;;;;;;19.19;56.10;97489.72;5057166;28;20434;-67
2022/08/17 01:22:31;;;;;;;;;;;;;;;19.10;56.08;97483.72;5058493;28;19954;-64
2022/08/17 01:25:00;;;;;;;;;;;;;;;19.01;56.44;97485.97;5047022;28;19929;-63
2022/08/17 01:27:53;;;;;;;;;;;;;;;18.68;57.22;97482.06;5059955;28;20320;-64
2022/08/17 01:30:21;;;;;;;;;;;;;;;18.83;57.00;97481.06;5056702;28;19929;-62
2022/08/17 01:33:15;;;;;;;;;;;;;;;18.84;56.85;97482.66;5065370;28;19976;-61
2022/08/17 01:35:43;;;;;;;;;;;;;;;18.98;56.45;97476.50;5060482;28;19947;-62
2022/08/17 01:38:12;;;;;;;;;;;;;;;19.04;56.23;97479.72;5048698;28;20400;-61
2022/08/17 01:40:40;;;;;;;;;;;;;;;19.07;56.08;97481.72;5049505;28;20307;-65
2022/08/17 01:43:12;;;;;;;;;;;;;;;18.84;56.84;97479.09;5068541;28;19924;-62
2022/08/17 01:45:41;;;;;;;;;;;;;;;18.95;56.42;97481.97;5066422;28;20336;-65
2022/08/17 01:48:09;;;;;;;;;;;;;;;18.73;56.95;97478.97;5047112;28;20035;-62
2022/08/17 01:50:37;;;;;;;;;;;;;;;18.79;56.64;97482.97;5067751;28;19924;-61
2022/08/17 01:53:07;;;;;;;;;;;;;;;18.80;56.50;97487.34;5068880;28;20396;-62
2022/08/17 01:55:38;;;;;;;;;;;;;;;18.72;56.81;97485.66;5066851;28;19925;-63
2022/08/17 01:58:08;;;;;;;;;;;;;;;18.79;56.71;97480.22;5062205;28;20031;-62
2022/08/17 02:00:37;;;;;;;;;;;;;;;18.78;56.90;97486.91;5064966;28;19979;-62
2022/08/17 02:03:50;;;;;;;;;;;;;;;18.66;56.93;97476.13;5056498;28;20361;-61
2022/08/17 02:06:22;;;;;;;;;;;;;;;18.70;56.71;97477.00;5050570;28;19928;-63
2022/08/17 02:08:54;;;;;;;;;;;;;;;18.71;56.84;97478.56;5062503;28;19937;-61
2022/08/17 02:11:30;;;;;;;;;;;;;;;18.74;56.49;97472.31;5071411;28;20369;-63
2022/08/17 02:13:58;;;;;;;;;;;;;;;18.77;56.48;97471.56;5052672;28;19975;-64
2022/08/17 02:16:30;;;;;;;;;;;;;;;18.44;57.48;97461.31;5063251;28;19932;-61
2022/08/17 02:19:31;;;;;;;;;;;;;;;18.25;58.14;97467.75;5074177;28;19932;-63
2022/08/17 02:22:00;;;;;;;;;;;;;;;18.19;58.23;97463.72;5070289;28;20056;-61
2022/08/17 02:24:31;;;;;;;;;;;;;;;18.21;58.25;97455.91;5073462;28;19925;-61
2022/08/17 02:27:21;;;;;;;;;;;;;;;18.23;58.06;97458.28;5055003;28;19925;-63
2022/08/17 02:29:49;;;;;;;;;;;;;;;18.31;57.72;97449.75;5057942;28;19925;-64
2022/08/17 02:32:18;;;;;;;;;;;;;;;18.49;57.04;97461.00;5040894;28;20172;-62
2022/08/17 02:34:47;;;;;;;;;;;;;;;18.48;57.02;97455.84;5030783;28;19965;-61
2022/08/17 02:37:16;;;;;;;;;;;;;;;18.27;57.77;97451.69;5029174;28;20028;-61
2022/08/17 02:39:44;;;;;;;;;;;;;;;18.35;57.63;97446.25;5029188;28;20294;-63
2022/08/17 02:42:13;;;;;;;;;;;;;;;18.36;57.34;97451.38;5046105;28;19929;-63
2022/08/17 02:44:42;;;;;;;;;;;;;;;18.33;57.60;97450.19;5045555;28;20425;-62
2022/08/17 02:47:11;;;;;;;;;;;;;;;18.28;57.79;97452.47;5030571;28;19921;-61
2022/08/17 02:49:39;;;;;;;;;;;;;;;18.28;57.69;97442.25;5038608;28;20369;-62
2022/08/17 02:52:13;;;;;;;;;;;;;;;18.04;58.22;97450.94;5024892;28;19925;-66
2022/08/17 02:54:40;;;;;;;;;;;;;;;18.23;58.03;97464.56;5027635;28;19920;-61
2022/08/17 02:57:09;;;;;;;4.63;2.55;;;;;;;18.24;57.73;97446.91;5029431;28;19990;-64
2022/08/17 02:59:39;;;;;;;;;;;;;;;18.00;58.74;97452.84;5029685;28;20414;-63
2022/08/17 03:02:14;;;;;;;;;;;;;;;18.04;58.49;97439.97;5030940;28;19929;-69
2022/08/17 03:04:45;;;;;;;;;;;;;;;18.14;58.13;97447.56;5037068;28;19925;-61
2022/08/17 03:07:14;;;;;;;;;;;;;;;18.05;58.61;97449.78;5023349;28;20289;-69
2022/08/17 03:09:42;;;;;;;;;;;;;;;17.94;58.91;97455.13;5021199;28;19933;-70
2022/08/17 03:12:12;;;;;;;;;;;;;;;17.99;58.52;97454.03;5050398;28;19920;-61
2022/08/17 03:14:42;;;;;;;;;;;;;;;17.99;58.57;97441.06;5035210;28;20394;-63
2022/08/17 03:17:11;;;;;;;;;;;;;;;17.92;58.84;97448.44;5036859;28;19928;-61
2022/08/17 03:19:45;;;;;;;;;;;;;;;18.08;58.33;97446.31;5025167;28;20277;-63
2022/08/17 03:22:13;;;;;;;;;;;;;;;18.03;58.41;97433.66;5019539;28;19925;-67
2022/08/17 03:25:20;;;;;;;;;;;;;;;18.16;57.96;97431.47;5014920;28;20403;-62
2022/08/17 03:28:34;;;;;;;;;;;;;;;18.02;58.23;97442.28;5018504;28;20708;-63
2022/08/17 03:31:22;;;;;;;;;;;;;;;18.06;58.13;97438.44;5019209;28;20160;-63
2022/08/17 03:34:13;;;;;;;;;;;;;;;17.94;58.51;97440.59;5051943;28;20284;-71
2022/08/17 03:37:02;;;;;;;;;;;;;;;17.84;59.01;97441.22;5062182;28;20373;-62
2022/08/17 03:39:50;;;;;;;;;;;;;;;17.80;58.80;97441.19;5058177;28;19925;-64
2022/08/17 03:42:39;;;;;;;;;;;;;;;17.73;58.99;97447.34;5059835;28;19927;-63
2022/08/17 03:57:28;;;;;;;;;;;;;;;17.91;58.72;97452.34;5056180;28;19929;-61
2022/08/17 03:59:56;;;;;;;;;;;;;;;17.94;58.40;97449.63;5048738;28;19926;-61
2022/08/17 04:02:27;;;;;;;;;;;;;;;17.99;58.24;97443.03;5044217;28;19973;-66
2022/08/17 04:04:55;;;;;;;;;;;;;;;17.95;58.62;97445.75;5043586;28;19924;-63
2022/08/17 04:07:23;;;;;;;;;;;;;;;17.87;58.75;97451.50;5063232;28;19931;-64
2022/08/17 04:09:53;;;;;;;;;;;;;;;17.78;58.87;97457.25;5066995;28;19927;-61
2022/08/17 04:12:22;;;;;;;;;;;;;;;17.86;58.79;97460.91;5067111;28;20008;-63
2022/08/17 04:14:50;;;;;;;;;;;;;;;17.94;58.29;97468.06;5058936;28;19928;-61
2022/08/17 04:17:22;;;;;;;;;;;;;;;17.93;58.35;97466.50;5047150;28;19971;-61
2022/08/17 04:19:50;;;;;;;;;;;;;;;17.92;58.41;97467.66;5060727;28;20345;-61
2022/08/17 04:22:23;;;;;;;;;;;;;;;17.91;58.63;97474.34;5057096;28;19920;-61
2022/08/17 04:25:08;;;;;;;;;;;;;;;17.98;58.49;97477.19;5057273;28;20011;-61
2022/08/17 04:27:36;;;;;;;;;;;;;;;17.99;58.03;97471.31;5062705;28;19931;-62
2022/08/17 04:30:12;;;;;;;;;;;;;;;17.86;58.89;97471.91;5060168;28;19924;-61
2022/08/17 04:33:26;;;;;;;;;;;;;;;17.86;58.94;97471.91;5043323;28;19921;-61
2022/08/17 04:35:57;;;;;;;;;;;;;;;17.91;58.45;97474.34;5040605;28;19927;-61
2022/08/17 04:39:01;;;;;;;;;;;;;;;17.91;58.60;97482.56;5026190;28;19926;-61
2022/08/17 04:45:35;;;;;;;;;;;;;;;17.76;59.28;97479.59;5026603;28;19925;-61
2022/08/17 04:48:06;;;;;;;;;;;;;;;17.71;59.25;97476.34;5018855;28;19921;-63
2022/08/17 04:53:53;;;;;;;;;;;;;;;17.91;58.38;97480.63;5005145;28;20505;-61
2022/08/17 04:56:22;;;;;;;;;;;;;;;17.93;58.48;97486.53;5019013;28;19968;-61
2022/08/17 04:58:50;;;;;;;;;;;;;;;17.96;58.35;97498.75;5024218;28;19921;-60
2022/08/17 05:01:21;;;;;;;;;;;;;;;18.04;58.18;97494.94;5024249;28;19925;-65
2022/08/17 05:03:50;;;;;;;;;;;;;;;18.02;58.05;97495.31;5025339;28;19921;-60
2022/08/17 05:06:18;;;;;;;;;;;;;;;18.06;58.06;97503.63;5016097;28;20027;-61
2022/08/17 05:08:46;;;;;;;;;;;;;;;18.02;58.14;97502.75;5017397;28;19925;-61
2022/08/17 05:11:14;;;;;;;;;;;;;;;17.87;58.77;97503.72;5022416;28;19925;-62
2022/08/17 05:13:42;;;;;;;;;;;;;;;18.02;58.39;97502.75;5034450;28;19921;-61
2022/08/17 05:16:10;;;;;;;;;;;;;;;18.17;58.21;97499.06;5020241;28;20278;-60
2022/08/17 05:18:39;;;;;;;;;;;;;;;18.18;58.03;97505.34;5021021;28;19940;-62
2022/08/17 05:21:07;;;;;;;;;;;;;;;18.25;57.77;97500.72;5021565;28;19948;-60
2022/08/17 05:23:35;;;;;;;;;;;;;;;18.29;57.39;97501.59;5048642;28;19936;-61
2022/08/17 05:29:03;;;;;;;;;;;;;;;18.39;57.29;97505.66;5021429;28;20399;-68
2022/08/17 05:31:30;;;;;;;;;;;;;;;18.51;57.06;97510.13;5037998;28;19949;-61
2022/08/17 05:34:00;;;;;;;;;;;;;;;18.53;56.93;97511.31;5064051;28;20018;-62
2022/08/17 05:36:28;;;;;;;;;;;;;;;18.55;57.05;97505.47;5064680;28;20278;-68
2022/08/17 05:39:05;;;;;;;;;;;;;;;18.57;56.96;97514.13;5063245;28;19927;-60
2022/08/17 05:41:36;;;;;;;;;;;;;;;18.65;56.84;97504.03;5050557;28;20022;-61
2022/08/17 05:44:04;;;;;;;;;;;;;;;18.62;56.68;97507.50;5050653;28;19920;-61
2022/08/17 05:46:35;;;;;;;;;;;;;;;18.55;56.83;97511.75;5045393;28;20418;-61
2022/08/17 05:49:07;;;;;;;;;;;;;;;18.55;56.67;97499.97;5064736;28;19931;-61
2022/08/17 05:51:41;;;;;;;;;;;;;;;18.65;57.07;97506.78;5064854;28;19933;-61
2022/08/17 05:54:15;;;;;;;;;;;;;;;18.83;56.54;97505.84;5062191;28;20377;-61
2022/08/17 05:56:50;;;;;;;;;;;;;;;18.91;55.87;97497.66;5063961;28;19971;-61
2022/08/17 05:59:20;;;;;;;;;;;;;;;18.79;55.82;97496.75;5068927;28;19943;-61
2022/08/17 06:01:50;;;;;;;;;;;;;;;18.59;56.06;97498.06;5069253;28;19927;-60
2022/08/17 06:04:21;;;;;;;;;;;;;;;18.84;56.43;97499.16;5068323;28;19928;-60
2022/08/17 06:06:52;;;;;;;;;;;;;;;19.07;56.68;97501.78;5068336;28;20369;-60
2022/08/17 06:09:26;;;;;;;;;;;;;;;19.14;55.30;97497.53;5065726;28;19927;-60
2022/08/17 06:12:00;;;;;;;;;;;;;;;18.99;55.27;97502.09;5066882;28;20417;-61
2022/08/17 06:14:34;;;;;;;;;;;;;;;19.23;55.47;97498.00;5068694;28;20002;-60
2022/08/17 06:17:03;;;;;;;;;;;;;;;19.29;54.59;97491.00;5050743;28;19929;-60
2022/08/17 06:19:33;;;;;;;;;;;;;;;19.46;54.39;97500.59;5051411;28;19977;-60
2022/08/17 06:22:02;;;;;;;;;;;;;;;19.66;54.44;97493.72;5050794;28;19921;-60
2022/08/17 06:24:33;;;;;;;;;;;;;;;19.81;53.34;97495.41;5065687;28;19956;-60
2022/08/17 06:27:01;;;;;;;;;;;;;;;19.75;53.81;97491.41;5069433;28;19989;-60
2022/08/17 06:29:36;;;;;;;;;;;;;;;19.66;53.61;97498.44;5068343;28;21761;-60
2022/08/17 06:32:05;;;;;;;;;;;;;;;19.93;53.71;97508.09;5063801;28;20269;-61
2022/08/17 06:34:36;;;;;;;;;;;;;;;19.97;52.98;97513.63;5036728;28;19920;-61
2022/08/17 06:37:06;;;;;;;;;;;;;;;20.14;53.00;97507.47;5049691;28;20284;-60
2022/08/17 06:40:01;;;;;;;;;;;;;;;20.31;52.79;97509.53;5063571;28;20173;-60
2022/08/17 06:42:31;;;;;;;;;;;;;;;20.40;52.51;97515.50;5064845;28;19920;-61
2022/08/17 06:45:48;;;;;;;5.78;2.88;;;;;;;20.67;52.34;97515.28;5065641;28;20522;-61
2022/08/17 06:48:23;;;;;;;8.35;3.33;;;;;;;20.66;52.29;97517.22;5063986;28;20416;-61
2022/08/17 06:50:58;;;;;;;6.40;3.30;;;;;;;20.84;52.51;97522.06;5066612;28;20412;-60
2022/08/17 06:53:32;;;;;;;5.47;3.50;;;;;;;20.88;51.23;97523.66;5063339;28;20874;-60
2022/08/17 06:56:05;;;;;;;7.20;3.13;;;;;;;21.07;51.33;97514.25;5064515;28;20429;-61
2022/08/17 06:58:37;;;;;;;5.13;2.72;;;;;;;21.08;50.38;97506.75;5071105;28;20406;-60
2022/08/17 07:01:09;;;;;;;5.55;2.78;;;;;;;21.28;50.70;97510.75;5047477;28;20420;-61
2022/08/17 07:03:41;;;;;;;5.50;3.15;;;;;;;21.31;49.63;97512.75;5046178;28;20422;-61
2022/08/17 07:06:12;;;;;;;5.38;3.00;;;;;;;21.47;49.91;97508.84;5063109;28;20415;-60
2022/08/17 07:08:49;;;;;;;7.25;3.10;;;;;;;21.55;49.74;97510.41;5044233;28;20412;-61
2022/08/17 07:11:20;;;;;;;;;;;;;;;21.75;49.88;97508.84;5066050;28;20407;-60
2022/08/17 07:13:51;;;;;;;;;;;;;;;21.80;50.01;97511.22;5065340;28;19951;-61
2022/08/17 07:16:19;;;;;;;;;;;;;;;21.79;48.69;97523.47;5052413;28;19921;-61
2022/08/17 07:18:49;;;;;;;;;;;;;;;22.03;49.13;97519.09;5069069;28;19975;-61
2022/08/17 07:21:22;;;;;;;;;;;;;;;22.18;49.47;97531.00;5050763;28;19921;-60
2022/08/17 07:24:00;;;;;;;;;;;;;;;22.16;48.38;97527.84;5068108;28;20262;-61
2022/08/17 07:26:29;;;;;;;;;;;;;;;22.30;48.50;97527.81;5070442;28;19931;-61
2022/08/17 07:28:57;;;;;;;;;;;;;;;22.43;48.43;97533.72;5072633;28;19965;-60
2022/08/17 07:31:30;;;;;;;5.70;3.10;;;;;;;22.55;48.41;97551.88;5048530;28;20430;-60
2022/08/17 07:33:59;;;;;;;;;;;;;;;22.67;48.53;97551.44;5047101;28;20417;-61
2022/08/17 07:36:32;;;;;;;;;;;;;;;22.77;48.75;97550.63;5066900;28;20444;-61
2022/08/17 07:39:01;;;;;;;;;;;;;;;22.89;48.81;97547.44;5063650;28;19928;-61
2022/08/17 07:41:33;;;;;;;;;;;;;;;22.98;47.18;97545.03;5068553;28;20370;-61
2022/08/17 07:44:24;;;;;;;;;;;;;;;23.09;46.96;97545.00;5065759;28;19920;-61
2022/08/17 07:49:41;;;;;;;;;;;;;;;23.26;46.16;97544.09;5048290;28;19925;-61
2022/08/17 07:52:11;;;;;;;;;;;;;;;23.31;46.58;97539.34;5068737;28;19952;-60
2022/08/17 07:55:02;;;;;;;;;;;;;;;23.28;45.90;97546.50;5058767;28;19924;-61
2022/08/17 07:57:32;;;;;;;;;;;;;;;23.37;45.44;97544.03;5068833;28;19957;-60
2022/08/17 08:00:15;;;;;;;;;;;;;;;23.43;46.28;97545.19;5061210;28;20200;-60
2022/08/17 08:02:47;;;;;;;;;;;;;;;23.57;44.62;97544.31;5061272;28;19928;-61
2022/08/17 08:05:17;;;;;;;;;;;;;;;23.75;44.96;97553.31;5061900;28;19934;-61
2022/08/17 08:08:00;;;;;;;;;;;;;;;23.86;44.87;97550.47;5050151;28;19928;-60
2022/08/17 08:10:30;;;;;;;;;;;;;;;23.97;46.06;97553.97;5063776;28;19926;-60
2022/08/17 08:13:03;;;;;;;;;;;;;;;24.08;44.57;97561.44;5066685;28;19927;-61
2022/08/17 08:15:34;;;;;;;;;;;;;;;24.16;44.38;97555.38;5064931;28;19932;-61
2022/08/17 08:18:03;;;;;;;;;;;;;;;24.24;44.39;97548.59;5046848;28;19974;-61
2022/08/17 08:20:37;;;;;;;;;;;;;;;24.40;44.18;97550.84;5062624;28;19927;-61
2022/08/17 08:23:24;;;;;;;;;;;;;;;24.52;43.81;97550.31;5061314;28;19920;-61
2022/08/17 08:25:56;;;;;;;;;;;;;;;24.62;43.30;97551.41;5057442;28;19928;-60
2022/08/17 08:28:56;;;;;;;;;;;;;;;24.80;43.02;97559.53;5064887;28;19921;-61
2022/08/17 08:31:26;;;;;;;;;;;;;;;24.78;42.42;97548.06;5066404;28;19947;-62
2022/08/17 08:33:59;;;;;;;;;;;;;;;25.01;42.21;97536.28;5047264;28;19928;-61
2022/08/17 08:36:36;;;;;;;;;;;;;;;25.16;42.26;97536.91;5064928;28;19921;-61
2022/08/17 08:39:30;;;;;;;;;;;;;;;25.20;41.57;97540.44;5064944;28;20007;-61
2022/08/17 08:42:00;;;;;;;;;;;;;;;25.30;41.56;97534.75;5043976;28;19995;-62
2022/08/17 08:44:31;;;;;;;;;;;;;;;25.33;41.81;97547.00;5050665;28;19979;-61
2022/08/17 08:50:18;;;;;;;;;;;;;;;25.33;40.76;97535.88;5066100;28;19925;-62
2022/08/17 08:53:09;;;;;;;;;;;;;;;25.48;41.34;97533.69;5062643;28;19974;-61
2022/08/17 08:55:44;;;;;;;;;;;;;;;25.60;40.73;97531.13;5048600;28;19924;-62
2022/08/17 08:58:13;;;;;;;;;;;;;;;25.68;40.78;97533.81;5064781;28;19997;-60
2022/08/17 09:00:58;;;;;;;;;;;;;;;25.80;40.47;97536.81;5065280;28;20390;-63
2022/08/17 09:03:40;;;;;;;;;;;;;;;25.88;40.59;97537.47;5059560;28;20007;-62
2022/08/17 09:06:32;;;;;;;;;;;;;;;25.84;40.14;97526.41;5066689;28;19925;-62
2022/08/17 09:09:08;;;;;;;;;;;;;;;26.05;40.18;97525.28;5062087;28;19927;-61
2022/08/17 09:11:41;;;;;;;;;;;;;;;26.17;39.73;97523.09;5065450;28;20372;-61
2022/08/17 09:14:32;;;;;;;;;;;;;;;26.16;38.80;97521.53;5066635;28;19924;-61
2022/08/17 09:17:15;;;;;;;;;;;;;;;26.31;38.76;97528.38;5063142;28;20324;-61
2022/08/17 09:19:45;;;;;;;;;;;;;;;26.43;38.28;97522.25;5062336;28;19925;-62
2022/08/17 09:22:22;;;;;;;;;;;;;;;26.45;37.35;97519.03;5061187;28;20299;-61
2022/08/17 09:24:53;;;;;;;;;;;;;;;26.57;37.64;97516.38;5063106;28;19920;-61
2022/08/17 09:27:25;;;;;;;;;;;;;;;26.56;37.92;97505.69;5049274;28;20294;-61
2022/08/17 09:32:54;;;;;;;;;;;;;;;26.78;37.90;97504.03;5051370;28;19943;-61
2022/08/17 09:35:24;;;;;;;;;;;;;;;26.77;37.34;97515.63;5063354;28;19921;-62
2022/08/17 09:38:08;;;;;;;;;;;;;;;26.94;36.41;97510.91;5066807;28;19921;-62
2022/08/17 09:40:37;;;;;;;;;;;;;;;26.99;36.66;97502.81;5064264;28;19928;-62
2022/08/17 09:43:08;;;;;;;;;;;;;;;27.09;35.73;97503.84;5062235;28;20350;-62
2022/08/17 09:45:39;;;;;;;;;;;;;;;27.00;36.35;97506.38;5056557;28;19928;-61
2022/08/17 09:48:08;;;;;;;;;;;;;;;27.03;36.14;97509.09;5064213;28;19948;-62
2022/08/17 09:50:38;;;;;;;;;;;;;;;27.01;36.13;97505.97;5066812;28;19955;-63
2022/08/17 09:53:22;;;;;;;;;;;;;;;27.21;35.73;97505.16;5058788;28;19963;-63
2022/08/17 09:56:00;;;;;;;;;;;;;;;27.41;35.78;97505.91;5044811;28;19928;-62
2022/08/17 09:58:33;;;;;;;;;;;;;;;27.50;34.86;97514.47;5070008;28;19924;-62
2022/08/17 10:01:08;;;;;;;;;;;;;;;27.44;34.67;97516.22;5064474;28;19956;-61
2022/08/17 10:03:44;;;;;;;;;;;;;;;27.54;34.68;97504.03;5068318;28;19947;-62
2022/08/17 10:06:13;;;;;;;;;;;;;;;27.55;33.92;97513.19;5069526;28;20374;-64
2022/08/17 10:08:42;;;;;;;;;;;;;;;27.66;32.57;97494.19;5067048;28;19944;-61
2022/08/17 10:11:15;;;;;;;;;;;;;;;27.77;32.78;97500.31;5064257;28;20390;-63
2022/08/17 10:13:46;;;;;;;;;;;;;;;27.89;33.52;97493.25;5066175;28;19931;-63
2022/08/17 10:16:22;;;;;;;;;;;;;;;27.82;33.29;97483.06;5052360;28;19920;-62
2022/08/17 10:18:53;;;;;;;;;;;;;;;27.89;33.33;97484.88;5060733;28;19934;-62
2022/08/17 10:26:54;;;;;;;;;;;;;;;27.89;32.79;97482.88;5065627;28;19935;-61
2022/08/17 10:29:27;;;;;;;;;;;;;;;27.99;32.77;97481.03;5066401;28;20020;-62
2022/08/17 10:32:03;;;;;;;;;;;;;;;28.08;32.02;97480.41;5065214;28;19921;-63
2022/08/17 10:34:46;;;;;;;;;;;;;;;28.14;31.82;97479.44;5069961;28;19920;-62
2022/08/17 10:37:25;;;;;;;;;;;;;;;28.29;32.72;97485.44;5047030;28;20348;-63
2022/08/17 10:40:02;;;;;;;;;;;;;;;28.23;32.68;97484.41;5067654;28;19924;-62
2022/08/17 10:42:34;;;;;;;;;;;;;;;28.32;31.66;97478.19;5065145;28;20011;-63
2022/08/17 10:45:05;;;;;;;;;;;;;;;28.45;30.59;97477.03;5051785;28;19928;-62
2022/08/17 10:47:50;;;;;;;;;;;;;;;28.62;30.73;97477.78;5069867;28;19973;-62
2022/08/17 10:50:41;;;;;;;;;;;;;;;28.64;31.01;97478.09;5055206;28;19920;-63
2022/08/17 10:53:09;;;;;;;;;;;;;;;28.79;30.49;97472.91;5069371;28;19951;-63
2022/08/17 10:55:40;;;;;;;;;;;;;;;28.78;30.39;97476.94;5040042;28;19920;-64
2022/08/17 10:58:19;;;;;;;;;;;;;;;28.68;31.03;97473.22;5050002;28;19931;-62
2022/08/17 11:01:11;;;;;;;;;;;;;;;28.76;31.09;97493.34;5047324;28;19920;-62
2022/08/17 11:03:52;;;;;;;;;;;;;;;28.80;30.01;97484.88;5064498;28;20262;-63
2022/08/17 11:06:22;;;;;;;;;;;;;;;28.80;30.65;97496.81;5067993;28;19927;-62
2022/08/17 11:08:58;;;;;;;;;;;;;;;28.79;30.13;97500.06;5066046;28;19970;-60
2022/08/17 11:11:46;;;;;;;;;;;;;;;28.72;29.85;97495.47;5046433;28;19920;-62
2022/08/17 11:14:22;;;;;;;;;;;;;;;28.82;29.49;97483.22;5047728;28;20300;-62
2022/08/17 11:16:53;;;;;;;;;;;;;;;28.87;30.03;97484.66;5069258;28;19920;-61
2022/08/17 11:19:31;;;;;;;;;;;;;;;28.76;28.16;97479.38;5069263;28;19927;-62
2022/08/17 11:22:19;;;;;;;;;;;;;;;28.83;28.88;97484.00;5050934;28;20332;-62
2022/08/17 11:24:52;;;;;;;;;;;;;;;28.83;28.59;97492.38;5065520;28;20021;-60
2022/08/17 11:27:23;;;;;;;;;;;;;;;28.93;29.41;97494.88;5063987;28;19952;-61
2022/08/17 11:29:53;;;;;;;;;;;;;;;29.03;29.42;97481.03;5062286;28;19926;-62
2022/08/17 11:32:56;;;;;;;;;;;;;;;29.06;28.01;97478.13;5061237;28;19927;-61
2022/08/17 11:35:29;;;;;;;;;;;;;;;29.09;28.78;97487.66;5069401;28;19936;-62
2022/08/17 11:38:01;;;;;;;;;;;;;;;29.05;29.17;97479.34;5062142;28;19920;-62
2022/08/17 11:40:37;;;;;;;;;;;;;;;29.09;28.54;97491.22;5062583;28;19931;-61
2022/08/17 11:43:14;;;;;;;;;;;;;;;29.12;28.57;97490.31;5064733;28;20355;-62
2022/08/17 11:45:47;;;;;;;;;;;;;;;29.21;28.15;97493.25;5063732;28;19935;-61
2022/08/17 11:57:01;;;;;;;;;;;;;;;28.80;28.57;97493.25;5050937;28;19990;-62
2022/08/17 11:59:50;;;;;;;;;;;;;;;28.83;27.91;97489.56;5068658;28;20407;-63
2022/08/17 12:02:37;;;;;;;;;;;;;;;28.80;27.92;97488.44;5061733;28;20369;-63
2022/08/17 12:05:28;;;;;;;;;;;;;;;28.83;28.50;97490.34;5067711;28;19920;-62
2022/08/17 12:08:01;;;;;;;;;;;;;;;28.86;27.95;97483.88;5061216;28;19974;-61
2022/08/17 12:10:33;;;;;;;;;;;;;;;28.75;28.08;97482.59;5064401;28;19924;-61
2022/08/17 12:13:02;;;;;;;;;;;;;;;28.63;28.39;97487.72;5065255;28;20453;-61
2022/08/17 12:15:30;;;;;;;;;;;;;;;28.67;28.13;97485.63;5062868;28;19928;-63
2022/08/17 12:17:58;;;;;;;;;;;;;;;28.58;28.18;97479.09;5044229;28;19955;-62
2022/08/17 12:20:27;;;;;;;;;;;;;;;28.66;29.14;97483.28;5064832;28;19920;-63
2022/08/17 12:23:00;;;;;;;;;;;;;;;28.70;28.62;97479.13;5064790;28;19925;-62
2022/08/17 12:25:38;;;;;;;;;;;;;;;28.81;28.83;97473.22;5064282;28;19924;-62
2022/08/17 12:28:25;;;;;;;;;;;;;;;28.97;27.80;97473.19;5061189;28;19926;-62
2022/08/17 12:31:17;;;;;;;;;;;;;;;29.06;27.70;97468.94;5064322;28;19952;-62
2022/08/17 12:33:50;;;;;;;;;;;;;;;29.17;28.08;97475.00;5025826;28;19921;-62
2022/08/17 12:36:19;;;;;;;;;;;;;;;29.32;27.86;97478.16;5025637;28;19921;-62
2022/08/17 12:38:51;;;;;;;;;;;;;;;29.52;27.05;97477.94;5023067;28;20821;-62
2022/08/17 12:41:32;;;;;;;;;;;;;;;29.66;27.04;97480.28;5028698;28;19975;-62
2022/08/17 12:44:02;;;;;;;;;;;;;;;29.89;26.81;97468.75;5041733;28;20008;-62
2022/08/17 12:46:33;;;;;;;;;;;;;;;29.88;26.74;97466.38;5025556;28;19928;-61
2022/08/17 12:49:15;;;;;;;;;;;;;;;29.89;25.91;97474.34;5036928;28;19935;-61
2022/08/17 12:51:44;;;;;;;;;;;;;;;29.81;25.93;97475.78;5014919;28;19921;-61
2022/08/17 12:54:22;;;;;;;;;;;;;;;29.93;26.21;97457.41;5025101;28;20004;-60
2022/08/17 12:56:53;;;;;;;;;;;;;;;29.93;26.31;97469.38;5026710;28;19921;-61
2022/08/17 12:59:23;;;;;;;;;;;;;;;29.81;26.95;97466.63;5031278;28;19932;-62
2022/08/17 13:01:57;;;;;;;;;;;;;;;29.55;27.13;97472.25;5034055;28;19921;-63
2022/08/17 13:04:25;;;;;;;;;;;;;;;29.48;26.96;97475.25;5028778;28;19931;-62
2022/08/17 13:06:53;;;;;;;;;;;;;;;29.42;27.50;97468.66;5036069;28;19921;-61
2022/08/17 13:09:29;;;;;;;;;;;;;;;29.32;27.68;97466.97;5027278;28;20373;-62
2022/08/17 13:12:09;;;;;;;;;;;;;;;29.28;27.39;97469.09;5026662;28;19929;-62
2022/08/17 13:14:44;;;;;;;;;;;;;;;29.28;27.71;97474.69;5023038;28;20023;-63
2022/08/17 13:17:13;;;;;;;;;;;;;;;29.18;28.14;97468.97;5038584;28;19944;-62
2022/08/17 13:19:47;;;;;;;;;;;;;;;29.10;27.57;97467.63;5025326;28;19921;-62
2022/08/17 13:22:15;;;;;;;;;;;;;;;29.26;27.11;97477.94;5026344;28;19932;-62
2022/08/17 13:24:51;;;;;;;;;;;;;;;29.28;27.47;97463.47;5023933;28;21665;-62
2022/08/17 13:27:21;;;;;;;;;;;;;;;29.21;27.79;97467.28;5025105;28;19928;-61
2022/08/17 13:29:50;;;;;;;;;;;;;;;29.29;27.75;97465.81;5021631;28;19921;-62
2022/08/17 13:32:21;;;;;;;;;;;;;;;29.30;27.51;97472.22;5048367;28;20376;-61
2022/08/17 13:34:50;;;;;;;;;;;;;;;29.29;26.99;97473.44;5050758;28;19935;-63
2022/08/17 13:37:39;;;;;;;;;;;;;;;29.09;27.46;97474.44;5066957;28;19935;-63
2022/08/17 13:40:29;;;;;;;;;;;;;;;29.03;26.98;97464.25;5067492;28;19924;-62
2022/08/17 13:43:02;;;;;;;;;;;;;;;29.03;27.16;97470.63;5065276;28;20407;-62
2022/08/17 13:45:33;;;;;;;;;;;;;;;28.83;27.23;97462.41;5062500;28;20365;-62
2022/08/17 13:48:05;;;;;;;;;;;;;;;28.86;27.40;97466.31;5035942;28;19975;-62
2022/08/17 13:50:33;;;;;;;;;;;;;;;28.84;27.71;97460.38;5070132;28;19925;-62
2022/08/17 13:53:02;;;;;;;;;;;;;;;28.78;28.05;97456.56;5063688;28;19929;-62
2022/08/17 13:55:30;;;;;;;;;;;;;;;28.82;27.90;97462.84;5068168;28;19920;-63
2022/08/17 13:57:57;;;;;;;;;;;;;;;28.86;27.53;97463.50;5070508;28;19951;-63
2022/08/17 14:00:34;;;;;;;;;;;;;;;28.91;27.34;97455.34;5068029;28;19921;-62
2022/08/17 14:03:06;;;;;;;;;;;;;;;29.01;27.53;97449.94;5064931;28;19982;-61
2022/08/17 14:05:34;;;;;;;;;;;;;;;29.04;28.14;97447.03;5069932;28;19921;-61
2022/08/17 14:08:05;;;;;;;;;;;;;;;29.06;27.97;97458.53;5061289;28;19929;-62
2022/08/17 14:10:35;;;;;;;;;;;;;;;29.12;27.76;97431.59;5070599;28;19924;-62
2022/08/17 14:13:03;;;;;;;;;;;;;;;29.31;28.05;97440.22;5069807;28;19949;-61
2022/08/17 14:15:31;;;;;;;;;;;;;;;29.53;28.02;97440.31;5049807;28;19921;-63